Flight Track Log - Related Links

Times and Time Zones

All times are in EDT time to prevent confusion due to time zone crossing. See the SWA3143 flight status page for this flight to view local times or setup timezone preferences in your user account.

Time Position Orientation Groundspeed Altitude Reporting Facility
EDT Latitude Longitude Course Direction KTS MPH feet Rate Location/Type
Sat 05:36:07 PM 38.8833 -77.0500 311° West 157 181 1,500  Level Potomac TRACON
Sat 05:37:01 PM 38.9167 -77.1000 311° West 232 267 4,500 4,000 Climbing Potomac TRACON
Sat 05:38:01 PM 38.9667 -77.1667 314° West 269 310 9,100 4,095 Climbing Potomac TRACON
Sat 05:39:07 PM 38.9667 -77.2667 270° West 318 366 13,100 3,300 Climbing Potomac TRACON
Sat 05:40:01 PM 38.9000 -77.3333 218° Southwest 353 406 15,700 3,316 Climbing Potomac TRACON
Sat 05:41:01 PM 38.8333 -77.4167 224° Southwest 367 422 19,400 2,000 Climbing Potomac TRACON
Sat 05:42:40 PM 38.6828 -77.5517 215° Southwest 377 434 21,000 1,509 Climbing Washington Center
Sat 05:43:40 PM 38.5936 -77.6422 218° Southwest 398 458 23,400 2,281 Climbing Washington Center
Sat 05:44:41 PM 38.5131 -77.7250 219° Southwest 410 472 25,600 2,213 Climbing Washington Center
Sat 05:45:42 PM 38.4419 -77.8475 233° Southwest 410 472 27,900 2,281 Climbing Washington Center
Sat 05:46:42 PM 38.3747 -77.9806 237° Southwest 436 502 30,200 2,390 Climbing Washington Center
Sat 05:47:40 PM 38.3031 -78.1158 236° Southwest 456 525 32,600 2,288 Climbing Washington Center
Sat 05:48:40 PM 38.2314 -78.2536 237° Southwest 469 540 34,700 1,686 Climbing Washington Center
Sat 05:49:41 PM 38.1572 -78.3908 236° Southwest 474 545 36,000 639 Climbing Washington Center
Sat 05:50:42 PM 38.0953 -78.5417 242° Southwest 468 539 36,000 347 Level Washington Center
Sat 05:51:42 PM 38.0522 -78.6769 248° West 456 525 36,700 1,271 Climbing Washington Center
Sat 05:52:40 PM 38.0047 -78.8175 247° West 450 518 38,500 1,678 Climbing Washington Center
Sat 05:53:40 PM 37.9550 -78.9603 246° West 450 518 40,000 750 Climbing Washington Center
Sat 05:54:40 PM 37.9050 -79.1053 246° West 450 518 40,000  Level Washington Center
Sat 05:55:41 PM 37.8336 -79.2544 239° Southwest 450 518 40,000  Level Washington Center
Sat 05:56:41 PM 37.7647 -79.3931 238° Southwest 456 525 40,000  Level Washington Center
Sat 05:57:42 PM 37.6936 -79.5258 236° Southwest 461 531 40,000  Level Washington Center
Sat 05:58:42 PM 37.6311 -79.6539 238° Southwest 473 544 40,000  Level Washington Center
Sat 05:59:40 PM 37.5528 -79.8067 237° Southwest 473 544 40,000  Level Washington Center
Sat 06:02:09 PM 37.3831 -80.1397 237° Southwest 495 570 40,000  Level Atlanta Center
Sat 06:03:09 PM 37.3122 -80.2761 237° Southwest 478 550 40,000  Level Atlanta Center
Sat 06:04:09 PM 37.2372 -80.4206 237° Southwest 468 539 40,000  Level Atlanta Center
Sat 06:05:09 PM 37.1661 -80.5567 237° Southwest 468 539 40,000  Level Atlanta Center
Sat 06:06:09 PM 37.0989 -80.6897 238° Southwest 468 539 40,000  Level Atlanta Center
Sat 06:07:09 PM 37.0356 -80.8119 237° Southwest 475 547 40,000  Level Atlanta Center
Sat 06:08:09 PM 36.9661 -80.9472 237° Southwest 469 540 40,000  Level Atlanta Center
Sat 06:09:09 PM 36.8983 -81.0797 237° Southwest 469 540 40,000  Level Atlanta Center
Sat 06:10:09 PM 36.8308 -81.2144 238° Southwest 469 540 40,000  Level Atlanta Center
Sat 06:11:09 PM 36.7611 -81.3594 239° Southwest 469 540 40,000  Level Atlanta Center
Sat 06:12:09 PM 36.6931 -81.4914 237° Southwest 464 534 40,000  Level Atlanta Center
Sat 06:13:09 PM 36.6228 -81.6256 237° Southwest 464 534 40,000  Level Atlanta Center
Sat 06:14:09 PM 36.5522 -81.7567 236° Southwest 464 534 40,000  Level Atlanta Center
Sat 06:15:09 PM 36.4858 -81.8931 239° Southwest 464 534 40,000  Level Atlanta Center
Sat 06:16:09 PM 36.4231 -82.0081 236° Southwest 459 528 40,000  Level Atlanta Center
Sat 06:17:09 PM 36.3522 -82.1414 237° Southwest 459 528 40,000  Level Atlanta Center
Sat 06:18:09 PM 36.2833 -82.2719 237° Southwest 465 535 40,000  Level Atlanta Center
Sat 06:19:09 PM 36.2122 -82.4047 236° Southwest 465 535 40,000  Level Atlanta Center
Sat 06:20:09 PM 36.1428 -82.5347 237° Southwest 465 535 40,000  Level Atlanta Center
Sat 06:21:09 PM 36.0736 -82.6644 237° Southwest 459 528 40,000  Level Atlanta Center
Sat 06:22:09 PM 36.0019 -82.7964 236° Southwest 459 528 40,000  Level Atlanta Center
Sat 06:23:09 PM 35.9344 -82.9258 237° Southwest 464 534 40,000  Level Atlanta Center
Sat 06:24:09 PM 35.8603 -83.0547 235° Southwest 464 534 40,000  Level Atlanta Center
Sat 06:25:09 PM 35.7925 -83.1889 238° Southwest 464 534 40,000  Level Atlanta Center
Sat 06:26:09 PM 35.7183 -83.3278 237° Southwest 464 534 40,000  Level Atlanta Center
Sat 06:27:09 PM 35.6481 -83.4561 236° Southwest 464 534 40,000  Level Atlanta Center
Sat 06:28:09 PM 35.5778 -83.5842 236° Southwest 464 534 40,000  Level Atlanta Center
Sat 06:29:09 PM 35.5072 -83.7122 236° Southwest 464 534 40,000  Level Atlanta Center
Sat 06:30:09 PM 35.4386 -83.8372 236° Southwest 458 527 40,000  Level Atlanta Center
Sat 06:31:09 PM 35.3678 -83.9650 236° Southwest 458 527 40,000  Level Atlanta Center
Sat 06:32:09 PM 35.2969 -84.0922 236° Southwest 458 527 40,000  Level Atlanta Center
Sat 06:33:09 PM 35.2278 -84.2167 236° Southwest 458 527 40,000  Level Atlanta Center
Sat 06:34:09 PM 35.1567 -84.3411 235° Southwest 458 527 40,000  Level Atlanta Center
Sat 06:35:09 PM 35.0875 -84.4653 236° Southwest 453 521 40,000  Level Atlanta Center
Sat 06:36:09 PM 35.0161 -84.5917 235° Southwest 453 521 40,000  Level Atlanta Center
Sat 06:37:09 PM 34.9467 -84.7128 235° Southwest 448 516 40,000  Level Atlanta Center
Sat 06:38:09 PM 34.8769 -84.8414 237° Southwest 448 516 40,000  Level Atlanta Center
Sat 06:39:09 PM 34.8050 -84.9622 234° Southwest 448 516 40,000  Level Atlanta Center
Sat 06:40:09 PM 34.7353 -85.0878 236° Southwest 448 516 40,000  Level Atlanta Center
Sat 06:41:09 PM 34.6631 -85.2131 235° Southwest 448 516 40,000  Level Atlanta Center
Sat 06:42:09 PM 34.5931 -85.3358 235° Southwest 448 516 40,000  Level Atlanta Center
Sat 06:43:09 PM 34.5208 -85.4608 235° Southwest 448 516 40,000  Level Atlanta Center
Sat 06:44:09 PM 34.4483 -85.5881 235° Southwest 448 516 40,000  Level Atlanta Center
Sat 06:45:09 PM 34.3778 -85.7150 236° Southwest 453 521 40,000  Level Atlanta Center
Sat 06:46:09 PM 34.3031 -85.8317 232° Southwest 453 521 40,000  Level Atlanta Center
Sat 06:47:09 PM 34.2300 -85.9583 235° Southwest 459 528 40,000  Level Atlanta Center
Sat 06:48:09 PM 34.1550 -86.0822 234° Southwest 459 528 40,000  Level Atlanta Center
Sat 06:49:09 PM 34.0842 -86.2058 235° Southwest 459 528 40,000  Level Atlanta Center
Sat 06:50:09 PM 34.0089 -86.3292 234° Southwest 459 528 40,000  Level Atlanta Center
Sat 06:51:09 PM 33.9356 -86.4550 235° Southwest 459 528 40,000  Level Atlanta Center
Sat 06:52:09 PM 33.8600 -86.5778 233° Southwest 464 534 40,000  Level Atlanta Center
Sat 06:53:09 PM 33.7864 -86.7006 234° Southwest 464 534 40,000  Level Atlanta Center
Sat 06:54:09 PM 33.7128 -86.8233 234° Southwest 464 534 40,000  Level Atlanta Center
Sat 06:55:09 PM 33.6347 -86.9481 233° Southwest 464 534 40,000  Level Atlanta Center
Sat 06:56:09 PM 33.5567 -87.0675 232° Southwest 464 534 40,000  Level Atlanta Center
Sat 06:57:09 PM 33.4744 -87.1867 230° Southwest 469 540 40,000  Level Atlanta Center
Sat 06:58:09 PM 33.3961 -87.3058 232° Southwest 469 540 40,000  Level Atlanta Center
Sat 06:59:52 PM 33.2675 -87.5050 232° Southwest 471 542 40,000  Level Memphis Center
Sat 07:00:52 PM 33.1867 -87.6219 230° Southwest 471 542 40,000  Level Memphis Center
Sat 07:01:52 PM 33.1058 -87.7433 232° Southwest 471 542 40,000  Level Memphis Center
Sat 07:02:52 PM 33.0267 -87.8622 232° Southwest 466 536 40,000  Level Memphis Center
Sat 07:03:52 PM 32.9394 -87.9933 232° Southwest 461 531 40,000  Level Memphis Center
Sat 07:04:52 PM 32.8750 -88.1186 239° Southwest 461 531 40,000  Level Memphis Center
Sat 07:05:52 PM 32.8275 -88.2608 248° West 455 524 40,000  Level Memphis Center
Sat 07:06:52 PM 32.7797 -88.4003 248° West 460 529 40,000  Level Memphis Center
Sat 07:07:52 PM 32.7317 -88.5372 247° West 460 529 40,000  Level Memphis Center
Sat 07:08:52 PM 32.6814 -88.6717 246° West 455 524 40,000  Level Memphis Center
Sat 07:09:52 PM 32.6331 -88.8131 248° West 460 529 40,000  Level Memphis Center
Sat 07:10:52 PM 32.5844 -88.9469 247° West 454 522 40,000  Level Memphis Center
Sat 07:11:52 PM 32.5358 -89.0833 247° West 454 522 40,000  Level Memphis Center
Sat 07:12:52 PM 32.4872 -89.2169 247° West 454 522 40,000  Level Memphis Center
Sat 07:13:52 PM 32.4403 -89.3506 247° West 449 517 40,000  Level Memphis Center
Sat 07:14:52 PM 32.3911 -89.4864 247° West 449 517 40,000  Level Memphis Center
Sat 07:15:52 PM 32.3419 -89.6197 246° West 449 517 40,000  Level Memphis Center
Sat 07:16:52 PM 32.2947 -89.7528 247° West 449 517 40,000  Level Memphis Center
Sat 07:17:52 PM 32.2450 -89.8858 246° West 449 517 40,000  Level Memphis Center
Sat 07:18:52 PM 32.1975 -90.0186 247° West 444 511 40,000  Level Memphis Center
Sat 07:19:52 PM 32.1497 -90.1511 247° West 444 511 40,000  Level Memphis Center
Sat 07:20:52 PM 32.1000 -90.2839 246° West 439 505 40,000  Level Memphis Center
Sat 07:21:52 PM 32.0519 -90.4161 247° West 439 505 40,000  Level Memphis Center
Sat 07:22:48 PM 32.0114 -90.5267 247° West 438 504 40,000  Level Houston Center
Sat 07:23:49 PM 31.9633 -90.6567 246° West 435 501 40,000  Level Houston Center
Sat 07:24:50 PM 31.9153 -90.7869 247° West 435 501 40,000  Level Houston Center
Sat 07:25:51 PM 31.8589 -90.9378 246° West 436 502 40,000  Level Houston Center
Sat 07:26:53 PM 31.8100 -91.0667 246° West 434 499 40,000  Level Houston Center
Sat 07:27:54 PM 31.7589 -91.1958 245° Southwest 436 502 40,000  Level Houston Center
Sat 07:28:55 PM 31.7108 -91.3261 247° West 435 501 40,000  Level Houston Center
Sat 07:29:56 PM 31.6625 -91.4550 246° West 433 498 40,000  Level Houston Center
Sat 07:30:57 PM 31.6133 -91.5833 246° West 433 498 40,000  Level Houston Center
Sat 07:31:58 PM 31.5656 -91.7119 246° West 433 498 40,000  Level Houston Center
Sat 07:33:00 PM 31.5181 -91.8403 247° West 429 494 40,000  Level Houston Center
Sat 07:34:01 PM 31.4689 -91.9683 246° West 430 495 40,000  Level Houston Center
Sat 07:35:02 PM 31.4114 -92.1161 246° West 431 496 40,000  Level Houston Center
Sat 07:36:03 PM 31.3631 -92.2431 246° West 430 495 40,000  Level Houston Center
Sat 07:37:04 PM 31.3150 -92.3711 246° West 430 495 40,000  Level Houston Center
Sat 07:38:05 PM 31.2644 -92.4964 245° Southwest 430 495 40,000  Level Houston Center
Sat 07:39:07 PM 31.2172 -92.6228 246° West 427 491 40,000  Level Houston Center
Sat 07:40:08 PM 31.1703 -92.7503 247° West 426 490 40,000  Level Houston Center
Sat 07:41:09 PM 31.1214 -92.8756 246° West 426 490 40,000  Level Houston Center
Sat 07:42:10 PM 31.0725 -93.0000 245° Southwest 424 488 40,000  Level Houston Center
Sat 07:43:11 PM 31.0239 -93.1242 245° Southwest 424 488 40,000  Level Houston Center
Sat 07:44:12 PM 30.9758 -93.2478 246° West 422 486 40,000  Level Houston Center
Sat 07:45:14 PM 30.9183 -93.3950 246° West 421 484 40,000  Level Houston Center
Sat 07:46:15 PM 30.8706 -93.5178 246° West 421 484 40,000  Level Houston Center
Sat 07:47:16 PM 30.8222 -93.6403 245° Southwest 420 483 40,000  Level Houston Center
Sat 07:48:17 PM 30.7739 -93.7619 245° Southwest 419 482 40,000  Level Houston Center
Sat 07:49:18 PM 30.7256 -93.8853 246° West 423 487 40,000  Level Houston Center
Sat 07:50:20 PM 30.6767 -94.0064 245° Southwest 421 484 40,000  Level Houston Center
Sat 07:51:21 PM 30.6272 -94.1303 245° Southwest 426 490 40,000  Level Houston Center
Sat 07:52:22 PM 30.5675 -94.2783 245° Southwest 426 490 40,000  Level Houston Center
Sat 07:53:23 PM 30.5164 -94.4036 245° Southwest 431 496 40,000  Level Houston Center
Sat 07:54:25 PM 30.4683 -94.5214 245° Southwest 426 490 40,000  Level Houston Center
Sat 07:55:26 PM 30.4228 -94.6361 245° Southwest 429 494 40,000  Level Houston Center
Sat 07:56:27 PM 30.3619 -94.7853 245° Southwest 428 493 40,000  Level Houston Center
Sat 07:57:29 PM 30.3119 -94.9103 245° Southwest 430 495 40,000  Level Houston Center
Sat 07:58:29 PM 30.2608 -95.0328 244° Southwest 427 491 40,000  Level Houston Center
Sat 07:59:31 PM 30.2103 -95.1556 245° Southwest 426 490 40,000  Level Houston Center
Sat 08:00:32 PM 30.1603 -95.2792 245° Southwest 427 491 40,000 -244 Level Houston Center
Sat 08:01:34 PM 30.1086 -95.4022 244° Southwest 428 493 39,500 -836 Descending Houston Center
Sat 08:02:34 PM 30.0589 -95.5214 244° Southwest 419 482 38,300 -1,240 Descending Houston Center
Sat 08:03:35 PM 30.0119 -95.6353 245° Southwest 400 460 37,000 -2,146 Descending Houston Center
Sat 08:04:37 PM 29.9528 -95.7722 244° Southwest 400 460 33,900 -2,585 Descending Houston Center
Sat 08:05:38 PM 29.9031 -95.8892 244° Southwest 407 468 31,700 -2,311 Descending Houston Center
Sat 08:06:39 PM 29.8478 -96.0208 244° Southwest 433 498 29,200 -2,410 Descending Houston Center
Sat 08:07:40 PM 29.7939 -96.1453 244° Southwest 436 502 26,800 -2,311 Descending Houston Center
Sat 08:08:41 PM 29.7864 -96.2736 266° West 416 479 24,500 -2,213 Descending Houston Center
Sat 08:09:42 PM 29.7944 -96.4008 274° West 401 461 22,300 -2,115 Descending Houston Center
Sat 08:10:43 PM 29.8039 -96.5222 275° West 386 444 20,200 -2,049 Descending Houston Center
Sat 08:11:45 PM 29.8572 -96.6181 303° West 370 426 18,100 -2,049 Descending Houston Center
Sat 08:12:46 PM 29.9219 -96.7025 311° West 356 410 16,000 -1,918 Descending Houston Center
Sat 08:13:47 PM 29.9819 -96.7864 310° West 344 396 14,200 -1,869 Descending Houston Center
Sat 08:14:48 PM 30.0119 -96.9044 286° West 321 369 12,200 -1,082 Descending Houston Center
Sat 08:15:49 PM 30.0353 -97.0033 285° West 320 368 12,000 -98 Descending Houston Center
Sat 08:16:50 PM 30.0589 -97.0989 286° West 314 361 12,000 -738 Level Houston Center
Sat 08:17:51 PM 30.0822 -97.1967 285° West 316 364 10,500 -1,805 Descending Houston Center
Sat 08:18:53 PM 30.1344 -97.2842 305° West 311 358 8,300 -2,000 Descending Houston Center
Sat 08:19:54 PM 30.1842 -97.3589 308° West 298 343 6,400 -1,967 Descending Houston Center
Sat 08:20:55 PM 30.2336 -97.4342 307° West 292 336 4,300 -1,770 Descending Houston Center
Sat 08:21:56 PM 30.2833 -97.5097 307° West 291 335 2,800 -934 Descending Houston Center
Sat 08:22:57 PM 30.2944 -97.5894 279° West 258 297 2,400 -443 Descending Houston Center
Sat 08:23:58 PM 30.2881 -97.6514 263° West 212 244 1,900 -541 Descending Houston Center
Sat 08:24:59 PM 30.2508 -97.6592 190° South 154 177 1,300 -443 Descending Houston Center
Sat 08:26:00 PM 30.2167 -97.6569 177° South 137 158 1,000 -295 Descending Houston Center
Sat 08:28:00 PM 30.1945 -97.6699 270° West  Level Estimated

Login

Don't have an account? Register now (free) for customized features, flight alerts, and more!